MSR768 LEBL-HECA
Flight info
| Callsign | MSR768 |
|---|---|
| Flight time | N/A |
| Altitude | 33000 |
| Route | DIPES DCT TOSNU/N0480F370 DCT LAPIT/N0481F360 N725 OSPOK/N0478F370 DCT NOLVI DCT ORKUM/N0480F360 DCT ELSAG DCT ALG/N0478F370 DCT RUTOM DCT TRL UL612 KUMBI L612 BLT A16 CVO |
| Aircraft | B77W/H-SDE1E2E3FGHIJ2J3J4J5M1RWXY/LB1D1 |
Departure
| Time | 2026-05-05 16:14 |
|---|---|
| Airport | Josep Tarradellas Barcelona-El Prat Airport (LEBL) |
Arrival
| Time | N/A |
|---|---|
| Airport | Cairo International Airport (HECA) |
| Time | Latitude | Longitude | Altitude | Speed | Heading |
|---|---|---|---|---|---|
| 2026-05-05 15:53 | 41.29098 | 2.07550 | 24 ft | 0 kts | 248° |
| 2026-05-05 16:01 | 41.29102 | 2.07565 | 27 ft | 2 kts | 247° |
| 2026-05-05 16:02 | 41.29109 | 2.07585 | 29 ft | 2 kts | 247° |
| 2026-05-05 16:02 | 41.29115 | 2.07605 | 28 ft | 2 kts | 246° |
| 2026-05-05 16:02 | 41.29122 | 2.07625 | 27 ft | 2 kts | 245° |
| 2026-05-05 16:02 | 41.29129 | 2.07645 | 26 ft | 2 kts | 245° |
| 2026-05-05 16:03 | 41.29140 | 2.07660 | 29 ft | 2 kts | 219° |
| 2026-05-05 16:03 | 41.29149 | 2.07678 | 29 ft | 2 kts | 246° |
| 2026-05-05 16:03 | 41.29156 | 2.07698 | 29 ft | 2 kts | 246° |
| 2026-05-05 16:03 | 41.29160 | 2.07710 | 29 ft | 1 kts | 246° |
| 2026-05-05 16:04 | 41.29160 | 2.07711 | 29 ft | 0 kts | 246° |
| 2026-05-05 16:08 | 41.29159 | 2.07676 | 28 ft | 7 kts | 294° |
| 2026-05-05 16:08 | 41.29243 | 2.07614 | 26 ft | 21 kts | 334° |
| 2026-05-05 16:09 | 41.29357 | 2.07612 | 20 ft | 15 kts | 55° |
| 2026-05-05 16:09 | 41.29401 | 2.07734 | 21 ft | 15 kts | 65° |
| 2026-05-05 16:09 | 41.29444 | 2.07856 | 21 ft | 15 kts | 65° |
| 2026-05-05 16:09 | 41.29493 | 2.07998 | 23 ft | 20 kts | 65° |
| 2026-05-05 16:10 | 41.29558 | 2.08189 | 20 ft | 25 kts | 69° |
| 2026-05-05 16:10 | 41.29604 | 2.08406 | 23 ft | 25 kts | 64° |
| 2026-05-05 16:10 | 41.29561 | 2.08554 | 24 ft | 20 kts | 148° |
| 2026-05-05 16:10 | 41.29414 | 2.08643 | 20 ft | 27 kts | 156° |
| 2026-05-05 16:11 | 41.29236 | 2.08748 | 24 ft | 28 kts | 155° |
| 2026-05-05 16:11 | 41.29011 | 2.09164 | 24 ft | 22 kts | 65° |
| 2026-05-05 16:12 | 41.29083 | 2.09375 | 24 ft | 29 kts | 65° |
| 2026-05-05 16:12 | 41.29255 | 2.09877 | 24 ft | 30 kts | 63° |
| 2026-05-05 16:13 | 41.29203 | 2.10275 | 20 ft | 13 kts | 241° |
| 2026-05-05 16:13 | 41.29094 | 2.09961 | 26 ft | 78 kts | 245° |
| 2026-05-05 16:13 | 41.28734 | 2.08901 | 28 ft | 170 kts | 246° |
| 2026-05-05 16:14 | 41.27465 | 2.05880 | 1719 ft | 185 kts | 215° |
| 2026-05-05 16:14 | 41.24838 | 2.06171 | 2801 ft | 221 kts | 141° |
| 2026-05-05 16:15 | 41.22125 | 2.07768 | 4077 ft | 221 kts | 196° |
| 2026-05-05 16:15 | 41.19366 | 2.06488 | 5694 ft | 215 kts | 197° |
| 2026-05-05 16:16 | 41.16329 | 2.05586 | 6803 ft | 241 kts | 187° |
| 2026-05-05 16:16 | 41.13416 | 2.05419 | 7634 ft | 268 kts | 184° |
| 2026-05-05 16:17 | 41.09624 | 2.05291 | 9438 ft | 274 kts | 185° |
| 2026-05-05 16:17 | 41.07711 | 2.05212 | 10311 ft | 278 kts | 185° |
| 2026-05-05 16:18 | 41.03518 | 2.05009 | 10954 ft | 329 kts | 185° |
| 2026-05-05 16:18 | 41.01157 | 2.05173 | 11134 ft | 356 kts | 169° |